KTEXKCNY

Guest
Details From KTEX - Telluride Rgnl
To KCNY - CANYONLANDS FLD
Flight Number -
Tags generated
Created
Modified
Stats Distance 99 nm / 184 km
Max Altitude 0 ft / 0 m
Waypoints 2
Social Downloads 0
Likes 0
Share VATSIM

Download

Looking for another format? Having issues loading an existing format? Contact us
Advertisement - Login to hide

Notes

Basic altitude profile: - Ascent Rate: 1300ft/min - Ascent Speed: 120kts - Cruise Altitude: 35000ft - Cruise Speed: 160kts - Descent Rate: 1500ft/min - Descent Speed: 250kts Options: - Use NATs: no - Use PACOTS: no - Use low airways: no - Use high airways: no

Route

KTEX KCNY

ID Type Via Altitude Latitude Longitude Leg Dist Tot Dist Heading (true) Name
O KTEX APT - 0 ft / 0 m 37.95381˚ -107.90874˚ - 0 nm - Telluride Rgnl
O KCNY APT - 0 ft / 0 m 38.75496˚ -109.75484˚ 99 nm 99 nm 300° / 298° CANYONLANDS FLD

Altitude Profile

Advertisement - Login to hide

KTEX

Details ICAO KTEX (TEX)
Name Telluride Rgnl
Region United States
Timezone America/Denver (UTC-7.0)
Stats Elevation 9,078 ft / 2,767 m (AMSL)
Location 37.953812° -107.908742°
Runways 1
Magnetic Variation 9.420° E

METAR

KTEX 151935Z AUTO 29004KT 10SM CLR 07/M24 A3028 RMK AO2 T00651238

Decode

TAF

KTEX 151727Z 1518/1618 00000KT P6SM FEW250 FM152000 25006KT P6SM FEW250 FM160200 16005KT P6SM FEW140 FEW250 FM161200 12005KT P6SM SCT120 BKN200

Decode

Departure Runways

ID Width Length Bearing (true) Bearing (mag) Surface Threshold Offset Overrun Length
09 98 ft / 30 m 7,095 ft / 2,163 m 104.96° 95.54° Asphalt 200 ft / 61 m 400 ft / 122 m
27 98 ft / 30 m 7,095 ft / 2,163 m 284.98° 275.56° Asphalt 200 ft / 61 m 400 ft / 122 m

KCNY

Details ICAO KCNY (CNY)
Name CANYONLANDS FLD
Region United States
Timezone America/Denver (UTC-7.0)
Stats Elevation 4,555 ft / 1,388 m (AMSL)
Location 38.754957° -109.754845°
Runways 1
Magnetic Variation 10.295° E

METAR

KCNY 151853Z AUTO 11005KT 10SM CLR 06/M11 A3030 RMK AO2 SLP274 T00561106

Decode

TAF

KCNY 151727Z 1518/1618 14005KT P6SM FEW250 FM152000 29004KT P6SM FEW250 FM160200 32004KT P6SM FEW150 SCT250 FM161200 15005KT P6SM SCT150 BKN250

Decode

Destination Runways

ID Width Length Bearing (true) Bearing (mag) Surface Threshold Offset Overrun Length
03 75 ft / 23 m 7,099 ft / 2,164 m 39.77° 29.48° Asphalt 0 ft / 0 m 0 ft / 0 m
21 75 ft / 23 m 7,099 ft / 2,164 m 219.78° 209.49° Asphalt 0 ft / 0 m 0 ft / 0 m